createdAt,value
2019-03-29T00:03:36.809Z,7.05
2019-03-29T00:07:43.464Z,7.13
2019-03-29T00:11:50.105Z,7.18
2019-03-29T00:15:56.840Z,7.03
2019-03-29T00:20:06.177Z,6.97
2019-03-29T00:24:12.091Z,6.98
2019-03-29T00:28:18.733Z,6.89
2019-03-29T00:32:25.391Z,6.89
2019-03-29T00:36:32.275Z,6.85
2019-03-29T00:40:38.898Z,6.74
2019-03-29T00:44:45.819Z,6.76
2019-03-29T00:48:52.515Z,6.74
2019-03-29T00:52:59.602Z,6.69
2019-03-29T00:57:06.243Z,6.70
2019-03-29T01:01:12.928Z,6.60
2019-03-29T01:05:20.222Z,6.62
2019-03-29T01:09:28.245Z,6.51
2019-03-29T01:13:34.921Z,6.60
2019-03-29T01:17:41.929Z,6.53
2019-03-29T01:21:48.966Z,6.46
2019-03-29T01:25:55.701Z,6.51
2019-03-29T01:30:02.297Z,6.54
2019-03-29T01:34:08.920Z,6.47
2019-03-29T01:38:21.608Z,6.49
2019-03-29T01:42:24.319Z,6.36
2019-03-29T01:46:30.981Z,6.39
2019-03-29T01:50:37.708Z,6.32
2019-03-29T01:54:44.329Z,6.17
2019-03-29T01:58:51.224Z,6.21
2019-03-29T02:02:57.829Z,6.19
2019-03-29T02:07:04.805Z,6.17
2019-03-29T02:11:11.485Z,6.15
2019-03-29T02:15:18.289Z,6.18
2019-03-29T02:19:24.930Z,6.09
2019-03-29T02:23:31.581Z,6.09
2019-03-29T02:27:39.969Z,6.04
2019-03-29T02:31:46.623Z,6.00
2019-03-29T02:35:53.197Z,5.79
2019-03-29T02:39:59.856Z,5.84
2019-03-29T02:44:07.627Z,5.85
2019-03-29T02:48:16.823Z,5.74
2019-03-29T02:52:23.376Z,5.72
2019-03-29T02:56:30.056Z,5.84
2019-03-29T03:00:36.678Z,5.78
2019-03-29T03:04:43.335Z,5.71
2019-03-29T03:08:50.065Z,5.64
2019-03-29T03:12:56.758Z,5.55
2019-03-29T03:17:03.969Z,5.69
2019-03-29T03:21:10.565Z,5.58
2019-03-29T03:25:17.435Z,5.52
2019-03-29T03:29:24.336Z,5.57
2019-03-29T03:33:30.998Z,5.47
2019-03-29T03:37:37.667Z,5.47
2019-03-29T03:41:44.302Z,5.42
2019-03-29T03:45:51.533Z,5.41
2019-03-29T03:50:00.831Z,5.27
2019-03-29T03:54:06.920Z,5.42
2019-03-29T03:58:15.461Z,5.31
2019-03-29T04:02:22.171Z,5.23
2019-03-29T04:06:28.774Z,5.28
2019-03-29T04:10:35.710Z,5.31
2019-03-29T04:14:42.359Z,5.28
2019-03-29T04:18:49.469Z,5.36
2019-03-29T04:22:56.122Z,5.35
2019-03-29T04:27:02.955Z,5.32
2019-03-29T04:31:09.614Z,5.30
2019-03-29T04:35:16.982Z,5.14
2019-03-29T04:39:24.037Z,5.01
2019-03-29T04:43:30.666Z,5.08
2019-03-29T04:47:38.197Z,5.08
2019-03-29T04:51:44.890Z,5.12
2019-03-29T04:55:51.537Z,5.06
2019-03-29T04:59:58.261Z,4.94
2019-03-29T05:04:04.865Z,5.00
2019-03-29T05:08:11.692Z,4.97
2019-03-29T05:12:19.281Z,4.93
2019-03-29T05:16:25.954Z,4.95
2019-03-29T05:20:32.803Z,4.94
2019-03-29T05:24:42.444Z,4.94
2019-03-29T05:28:49.348Z,4.99
2019-03-29T05:32:56.208Z,4.98
2019-03-29T05:37:03.417Z,4.85
2019-03-29T05:41:10.628Z,4.86
2019-03-29T05:45:18.545Z,4.86
2019-03-29T05:49:25.428Z,4.89
2019-03-29T05:53:32.072Z,4.85
2019-03-29T05:57:39.071Z,5.04
2019-03-29T06:01:45.913Z,5.04
2019-03-29T06:05:52.593Z,5.07
2019-03-29T06:10:01.861Z,5.12
2019-03-29T06:14:09.005Z,5.19
2019-03-29T06:18:16.133Z,5.27
2019-03-29T06:22:23.297Z,5.37
2019-03-29T06:26:29.944Z,5.50
2019-03-29T06:30:36.697Z,5.50
2019-03-29T06:34:43.563Z,5.68
2019-03-29T06:38:52.117Z,5.89
2019-03-29T06:43:57.102Z,6.01
2019-03-29T06:48:03.734Z,6.15
2019-03-29T06:52:10.400Z,6.25
2019-03-29T06:56:17.025Z,6.36
2019-03-29T07:00:24.062Z,6.66
2019-03-29T07:04:31.078Z,6.78
2019-03-29T07:08:37.831Z,6.95
2019-03-29T07:12:44.661Z,7.24
2019-03-29T07:16:51.424Z,7.29
2019-03-29T07:20:58.526Z,7.60
2019-03-29T07:25:06.027Z,7.73
2019-03-29T07:29:13.550Z,7.98
2019-03-29T07:33:20.587Z,8.23
2019-03-29T07:37:27.409Z,8.40
2019-03-29T07:41:34.955Z,8.60
2019-03-29T07:45:42.438Z,8.65
2019-03-29T07:49:49.220Z,8.92
2019-03-29T07:53:55.856Z,9.01
2019-03-29T07:58:03.489Z,9.13
2019-03-29T08:02:10.328Z,9.28
2019-03-29T08:06:16.945Z,9.51
2019-03-29T08:10:29.169Z,9.74
2019-03-29T08:14:33.069Z,9.80
2019-03-29T08:18:39.893Z,10.13
2019-03-29T08:22:46.570Z,10.26
2019-03-29T08:26:53.628Z,10.49
2019-03-29T08:31:00.871Z,10.45
2019-03-29T08:35:08.012Z,10.50
2019-03-29T08:39:27.224Z,10.67
2019-03-29T08:43:23.525Z,11.01
2019-03-29T08:47:30.608Z,11.07
2019-03-29T08:51:37.691Z,11.09
2019-03-29T08:55:46.172Z,11.17
2019-03-29T08:59:52.961Z,11.29
2019-03-29T09:04:05.226Z,11.66
2019-03-29T09:08:08.668Z,11.62
2019-03-29T09:12:19.757Z,11.70
2019-03-29T09:16:26.985Z,11.83
2019-03-29T09:20:34.656Z,11.91
2019-03-29T09:24:41.857Z,12.02
2019-03-29T09:28:48.719Z,12.00
2019-03-29T09:32:55.517Z,12.20
2019-03-29T09:37:10.895Z,12.31
2019-03-29T09:41:17.944Z,12.47
2019-03-29T09:45:24.596Z,12.59
2019-03-29T09:49:31.252Z,12.54
2019-03-29T09:53:40.986Z,12.64
2019-03-29T09:57:46.661Z,12.78
2019-03-29T10:01:54.226Z,12.93
2019-03-29T10:06:01.112Z,13.09
2019-03-29T10:10:08.269Z,13.29
2019-03-29T10:14:14.984Z,13.05
2019-03-29T10:18:22.064Z,13.20
2019-03-29T10:22:28.669Z,13.25
2019-03-29T10:26:36.926Z,13.22
2019-03-29T10:30:47.260Z,13.57
2019-03-29T10:34:54.086Z,13.44
2019-03-29T10:39:00.745Z,13.53
2019-03-29T10:43:10.910Z,13.68
2019-03-29T10:47:17.980Z,13.65
2019-03-29T10:51:24.625Z,13.70
2019-03-29T10:55:31.449Z,13.79
2019-03-29T10:59:38.184Z,13.87
2019-03-29T11:03:44.904Z,14.05
2019-03-29T11:07:52.038Z,13.91
2019-03-29T11:11:58.772Z,14.01
2019-03-29T11:16:05.998Z,13.97
2019-03-29T11:20:12.659Z,14.22
2019-03-29T11:24:20.176Z,14.35
2019-03-29T11:28:27.110Z,14.13
2019-03-29T11:32:34.220Z,14.04
2019-03-29T11:36:40.886Z,14.28
2019-03-29T11:40:47.696Z,14.53
2019-03-29T11:44:54.339Z,14.64
2019-03-29T11:49:01.236Z,14.44
2019-03-29T11:53:07.918Z,14.55
2019-03-29T11:57:14.831Z,14.73
2019-03-29T12:01:21.568Z,14.94
2019-03-29T12:05:28.236Z,15.07
2019-03-29T12:09:35.146Z,14.71
2019-03-29T12:13:42.052Z,14.86
2019-03-29T12:17:48.791Z,15.06
2019-03-29T12:21:55.917Z,14.70
2019-03-29T12:26:02.967Z,14.79
2019-03-29T12:30:23.675Z,15.06
2019-03-29T12:34:21.368Z,15.08
2019-03-29T12:38:28.178Z,14.98
2019-03-29T12:42:34.916Z,15.14
2019-03-29T12:46:46.881Z,15.08
2019-03-29T12:50:53.746Z,15.34
2019-03-29T12:55:00.371Z,15.00
2019-03-29T12:59:07.185Z,15.45
2019-03-29T13:03:13.869Z,15.31
2019-03-29T13:07:20.693Z,15.35
2019-03-29T13:11:27.770Z,15.45
2019-03-29T13:15:34.578Z,15.67
2019-03-29T13:19:47.783Z,15.42
2019-03-29T13:23:54.748Z,15.36
2019-03-29T13:28:01.577Z,15.78
2019-03-29T13:32:08.785Z,15.47
2019-03-29T13:36:15.974Z,15.87
2019-03-29T13:40:23.053Z,15.87
2019-03-29T13:44:46.572Z,15.85
2019-03-29T13:48:53.386Z,15.91
2019-03-29T13:53:00.512Z,16.18
2019-03-29T13:57:07.282Z,16.20
2019-03-29T14:01:14.171Z,15.83
2019-03-29T14:05:20.940Z,16.07
2019-03-29T14:09:30.239Z,16.07
2019-03-29T14:13:37.000Z,16.11
2019-03-29T14:17:44.122Z,16.34
2019-03-29T14:21:50.945Z,16.39
2019-03-29T14:25:58.023Z,16.40
2019-03-29T14:30:05.631Z,16.44
2019-03-29T14:34:12.443Z,16.51
2019-03-29T14:38:19.278Z,16.26
2019-03-29T14:42:25.966Z,16.31
2019-03-29T14:46:32.916Z,16.67
2019-03-29T14:50:39.677Z,16.67
2019-03-29T14:54:46.789Z,16.91
2019-03-29T14:58:53.520Z,16.61
2019-03-29T15:03:00.250Z,16.66
2019-03-29T15:07:09.132Z,16.74
2019-03-29T15:11:22.067Z,16.57
2019-03-29T15:15:24.364Z,16.53
2019-03-29T15:19:31.043Z,16.77
2019-03-29T15:23:38.395Z,16.56
2019-03-29T15:27:45.176Z,16.68
2019-03-29T15:54:25.324Z,19.08
2019-03-29T15:58:33.112Z,17.62
2019-03-29T16:04:13.608Z,17.35
2019-03-29T16:08:20.072Z,17.16
2019-03-29T16:12:26.776Z,17.06
2019-03-29T16:16:32.971Z,17.19
2019-03-29T16:20:39.303Z,17.02
2019-03-29T16:24:45.806Z,17.01
2019-03-29T16:28:52.189Z,17.00
2019-03-29T16:32:58.565Z,16.83
2019-03-29T16:37:04.931Z,16.93
2019-03-29T16:41:11.505Z,16.59
2019-03-29T16:45:17.785Z,16.70
2019-03-29T17:03:40.853Z,16.81
2019-03-29T17:06:07.174Z,16.76
2019-03-29T17:08:34.001Z,16.66
2019-03-29T17:11:00.491Z,16.69
2019-03-29T17:13:27.113Z,16.69
2019-03-29T17:16:01.510Z,16.57
2019-03-29T17:18:29.170Z,16.57
2019-03-29T17:20:50.713Z,16.44
2019-03-29T17:23:21.521Z,16.35
2019-03-29T17:25:48.083Z,16.46
2019-03-29T17:28:14.571Z,16.47
2019-03-29T17:30:45.824Z,16.31
2019-03-29T17:33:12.231Z,16.20
2019-03-29T17:35:38.550Z,16.23
2019-03-29T17:38:04.910Z,16.33
2019-03-29T17:40:31.228Z,16.23
2019-03-29T17:42:57.601Z,16.13
2019-03-29T17:45:23.933Z,16.09
2019-03-29T17:47:50.178Z,15.96
2019-03-29T17:50:18.322Z,15.87
2019-03-29T17:52:44.704Z,15.80
2019-03-29T17:55:12.350Z,15.86
2019-03-29T17:57:38.669Z,15.75
2019-03-29T18:00:06.658Z,15.67
2019-03-29T18:02:32.936Z,15.55
2019-03-29T18:04:59.349Z,15.52
2019-03-29T18:07:25.705Z,15.43
2019-03-29T18:09:51.950Z,15.41
2019-03-29T18:12:18.206Z,15.30
2019-03-29T18:14:44.505Z,15.36
2019-03-29T18:17:10.934Z,15.26
2019-03-29T18:19:37.628Z,15.17
2019-03-29T18:22:04.224Z,15.19
2019-03-29T18:24:30.524Z,15.00
2019-03-29T18:26:56.884Z,14.93
2019-03-29T18:29:23.249Z,14.87
2019-03-29T18:31:49.939Z,14.74
2019-03-29T18:34:16.469Z,14.78
2019-03-29T18:36:46.504Z,14.70
2019-03-29T18:39:12.848Z,14.60
2019-03-29T18:41:39.101Z,14.58
2019-03-29T18:44:05.437Z,14.53
2019-03-29T18:46:43.884Z,14.52
2019-03-29T18:48:59.800Z,14.41
2019-03-29T18:51:26.090Z,14.39
2019-03-29T18:53:52.604Z,14.16
2019-03-29T18:56:19.333Z,14.22
2019-03-29T18:58:45.672Z,14.18
2019-03-29T19:01:12.166Z,14.19
2019-03-29T19:03:38.565Z,14.11
2019-03-29T19:06:05.286Z,13.97
2019-03-29T19:08:31.742Z,13.81
2019-03-29T19:10:58.144Z,13.83
2019-03-29T19:13:25.042Z,13.77
2019-03-29T19:16:00.151Z,13.77
2019-03-29T19:18:26.702Z,13.78
2019-03-29T19:20:53.155Z,13.52
2019-03-29T19:23:19.611Z,13.57
2019-03-29T19:25:46.300Z,13.67
2019-03-29T19:28:12.596Z,13.53
2019-03-29T19:30:38.980Z,13.48
2019-03-29T19:33:05.880Z,13.54
2019-03-29T19:35:32.318Z,13.67
2019-03-29T19:37:59.275Z,13.57
2019-03-29T19:40:25.839Z,13.41
2019-03-29T19:42:52.408Z,13.48
2019-03-29T19:45:19.461Z,13.33
2019-03-29T19:47:53.939Z,13.24
2019-03-29T19:50:21.311Z,13.19
2019-03-29T19:52:49.983Z,13.15
2019-03-29T19:55:16.749Z,13.03
2019-03-29T19:57:46.367Z,12.91
2019-03-29T20:00:15.065Z,12.90
2019-03-29T20:02:41.735Z,12.71
2019-03-29T20:05:13.841Z,12.85
2019-03-29T20:07:40.690Z,12.91
2019-03-29T20:10:08.333Z,12.79
2019-03-29T20:12:34.923Z,12.74
2019-03-29T20:15:01.763Z,12.71
2019-03-29T20:17:28.360Z,12.66
2019-03-29T20:19:55.039Z,12.60
2019-03-29T20:22:21.635Z,12.58
2019-03-29T20:24:48.482Z,12.43
2019-03-29T20:27:15.150Z,12.50
2019-03-29T20:29:41.729Z,12.31
2019-03-29T20:32:08.322Z,12.27
2019-03-29T20:34:34.898Z,12.26
2019-03-29T20:37:01.820Z,12.35
2019-03-29T20:39:28.550Z,12.22
2019-03-29T20:41:55.029Z,12.27
2019-03-29T20:44:21.484Z,12.31
2019-03-29T20:46:51.020Z,12.10
2019-03-29T20:49:17.547Z,12.12
2019-03-29T20:51:43.917Z,12.08
2019-03-29T20:54:10.433Z,12.11
2019-03-29T20:56:36.801Z,11.87
2019-03-29T20:59:03.603Z,11.98
2019-03-29T21:01:30.069Z,12.00
2019-03-29T21:03:56.405Z,11.96
2019-03-29T21:06:22.782Z,11.98
2019-03-29T21:08:49.548Z,11.78
2019-03-29T21:11:17.844Z,11.78
2019-03-29T21:13:44.162Z,11.63
2019-03-29T21:16:10.970Z,11.56
2019-03-29T21:18:37.636Z,11.53
2019-03-29T21:21:03.995Z,11.50
2019-03-29T21:23:32.946Z,11.41
2019-03-29T21:26:01.464Z,11.48
2019-03-29T21:28:40.043Z,11.53
2019-03-29T21:31:06.418Z,11.64
2019-03-29T21:33:32.697Z,11.54
2019-03-29T21:35:58.979Z,11.57
2019-03-29T21:38:25.307Z,11.52
2019-03-29T21:40:51.540Z,11.32
2019-03-29T21:43:17.780Z,11.29
2019-03-29T21:45:50.542Z,11.28
2019-03-29T21:48:28.610Z,11.23
2019-03-29T21:50:46.197Z,11.17
2019-03-29T21:53:12.604Z,11.24
2019-03-29T21:55:39.250Z,11.17
2019-03-29T21:58:05.551Z,10.98
2019-03-29T22:00:32.142Z,10.95
2019-03-29T22:02:59.960Z,10.87
2019-03-29T22:05:26.315Z,10.89
2019-03-29T22:07:52.792Z,10.88
2019-03-29T22:10:19.384Z,10.80
2019-03-29T22:12:45.870Z,10.85
2019-03-29T22:15:13.102Z,10.76
2019-03-29T22:17:39.426Z,10.80
2019-03-29T22:20:07.705Z,10.72
2019-03-29T22:22:34.132Z,10.70
2019-03-29T22:25:00.408Z,10.62
2019-03-29T22:27:27.058Z,10.56
2019-03-29T22:29:56.464Z,10.60
2019-03-29T22:32:28.172Z,10.69
2019-03-29T22:34:56.299Z,10.43
2019-03-29T22:37:22.882Z,10.54
2019-03-29T22:39:49.210Z,10.48
2019-03-29T22:42:16.628Z,10.27
2019-03-29T22:44:43.129Z,10.30
2019-03-29T22:47:09.623Z,10.32
2019-03-29T22:49:35.870Z,10.39
2019-03-29T22:52:02.551Z,10.21
2019-03-29T22:54:29.421Z,10.36
2019-03-29T22:56:56.125Z,10.34
2019-03-29T22:59:22.302Z,10.37
2019-03-29T23:01:49.939Z,10.13
2019-03-29T23:04:16.268Z,10.27
2019-03-29T23:06:42.769Z,10.24
2019-03-29T23:09:12.778Z,10.14
2019-03-29T23:11:39.119Z,10.00
2019-03-29T23:14:05.449Z,9.99
2019-03-29T23:16:32.837Z,10.00
2019-03-29T23:19:06.378Z,9.89
2019-03-29T23:21:27.149Z,9.96
2019-03-29T23:23:53.505Z,9.75
2019-03-29T23:26:19.776Z,9.78
2019-03-29T23:28:46.088Z,9.87
2019-03-29T23:31:12.361Z,9.74
2019-03-29T23:33:38.935Z,9.66
2019-03-29T23:36:07.190Z,9.63
2019-03-29T23:38:34.881Z,9.79
2019-03-29T23:41:01.555Z,9.53
2019-03-29T23:43:28.683Z,9.52
2019-03-29T23:45:54.945Z,9.47
2019-03-29T23:48:21.216Z,9.59
2019-03-29T23:50:47.771Z,9.51
2019-03-29T23:53:14.078Z,9.56
2019-03-29T23:55:40.383Z,9.47
2019-03-29T23:58:06.644Z,9.38
